createdAt,value
2017-09-28T00:00:14.187Z,97.20
2017-09-28T00:02:42.614Z,97.30
2017-09-28T00:05:10.323Z,97.20
2017-09-28T00:07:38.760Z,97.40
2017-09-28T00:10:06.463Z,97.40
2017-09-28T00:12:34.907Z,97.50
2017-09-28T00:15:03.392Z,97.90
2017-09-28T00:17:31.077Z,97.80
2017-09-28T00:19:59.547Z,98.00
2017-09-28T00:22:27.268Z,98.00
2017-09-28T00:24:54.976Z,97.70
2017-09-28T00:27:23.440Z,97.50
2017-09-28T00:29:51.104Z,97.50
2017-09-28T00:32:18.879Z,97.60
2017-09-28T00:34:47.409Z,98.10
2017-09-28T00:37:15.152Z,98.00
2017-09-28T00:39:42.884Z,97.70
2017-09-28T00:42:11.405Z,97.40
2017-09-28T00:44:39.116Z,97.40
2017-09-28T00:47:07.704Z,97.60
2017-09-28T00:49:36.192Z,97.60
2017-09-28T00:52:04.755Z,97.70
2017-09-28T00:54:33.200Z,98.10
2017-09-28T00:57:00.947Z,98.10
2017-09-28T00:59:28.648Z,98.00
2017-09-28T01:01:56.382Z,97.80
2017-09-28T01:04:24.060Z,97.70
2017-09-28T01:06:51.775Z,97.80
2017-09-28T01:09:19.501Z,98.10
2017-09-28T01:11:47.975Z,98.40
2017-09-28T01:14:16.443Z,98.60
2017-09-28T01:16:44.192Z,98.60
2017-09-28T01:19:11.940Z,98.50
2017-09-28T01:21:39.751Z,98.50
2017-09-28T01:24:08.260Z,98.30
2017-09-28T01:26:36.064Z,98.20
2017-09-28T01:29:03.798Z,98.70
2017-09-28T01:31:31.552Z,98.50
2017-09-28T01:33:59.342Z,98.60
2017-09-28T01:36:27.115Z,98.50
2017-09-28T01:38:54.863Z,98.60
2017-09-28T01:41:22.613Z,99.00
2017-09-28T01:43:50.320Z,98.90
2017-09-28T01:46:18.813Z,98.50
2017-09-28T01:48:46.591Z,98.50
2017-09-28T01:51:14.265Z,98.20
2017-09-28T01:53:42.023Z,98.20
2017-09-28T01:56:09.731Z,98.30
2017-09-28T01:58:38.232Z,98.90
2017-09-28T02:01:05.947Z,98.80
2017-09-28T02:03:33.663Z,99.00
2017-09-28T02:06:01.363Z,99.50
2017-09-28T02:08:29.140Z,99.50
2017-09-28T02:10:56.856Z,99.30
2017-09-28T02:13:24.592Z,99.10
2017-09-28T02:15:52.304Z,99.10
2017-09-28T02:18:20.035Z,99.20
2017-09-28T02:20:47.722Z,98.90
2017-09-28T02:23:15.463Z,99.10
2017-09-28T02:25:43.199Z,99.10
2017-09-28T02:28:10.975Z,99.00
2017-09-28T02:30:38.664Z,99.00
2017-09-28T02:33:06.388Z,98.80
2017-09-28T02:35:34.056Z,99.00
2017-09-28T02:38:01.817Z,99.40
2017-09-28T02:40:29.508Z,99.70
2017-09-28T02:42:57.236Z,99.70
2017-09-28T02:45:24.909Z,99.70
2017-09-28T02:47:52.620Z,99.40
2017-09-28T02:50:21.052Z,99.40
2017-09-28T02:52:48.777Z,99.40
2017-09-28T02:55:16.435Z,99.30
2017-09-28T02:57:44.107Z,99.80
2017-09-28T03:00:11.909Z,99.90
2017-09-28T03:02:39.559Z,99.70
2017-09-28T03:05:07.268Z,99.60
2017-09-28T03:07:35.698Z,99.30
2017-09-28T03:10:03.447Z,99.20
2017-09-28T03:12:31.123Z,98.90
2017-09-28T03:14:58.836Z,98.90
2017-09-28T03:17:26.497Z,98.90
2017-09-28T03:19:54.248Z,99.00
2017-09-28T03:22:22.672Z,98.80
2017-09-28T03:24:50.385Z,98.80
2017-09-28T03:27:18.825Z,98.50
2017-09-28T03:29:46.536Z,98.50
2017-09-28T03:32:14.215Z,98.60
2017-09-28T03:34:41.924Z,98.80
2017-09-28T03:37:09.591Z,99.00
2017-09-28T03:39:38.063Z,99.10
2017-09-28T03:42:06.528Z,99.20
2017-09-28T03:44:34.235Z,99.10
2017-09-28T03:47:01.908Z,99.30
2017-09-28T03:49:29.627Z,99.20
2017-09-28T03:51:58.060Z,99.30
2017-09-28T03:54:25.771Z,99.30
2017-09-28T03:56:54.211Z,99.20
2017-09-28T03:59:21.979Z,99.20
2017-09-28T04:01:49.644Z,99.20
2017-09-28T04:04:17.327Z,99.30
2017-09-28T04:06:45.796Z,99.30
2017-09-28T04:09:13.467Z,99.30
2017-09-28T04:11:41.963Z,99.00
2017-09-28T04:14:09.681Z,99.00
2017-09-28T04:16:37.395Z,99.50
2017-09-28T04:19:05.056Z,99.20
2017-09-28T04:21:32.762Z,99.50
2017-09-28T04:24:00.472Z,99.60
2017-09-28T04:26:28.205Z,99.50
2017-09-28T04:28:56.663Z,99.90
2017-09-28T04:31:24.408Z,99.90
2017-09-28T04:33:52.103Z,99.90
2017-09-28T04:36:20.588Z,99.90
2017-09-28T04:38:49.024Z,99.90
2017-09-28T04:41:16.756Z,99.90
2017-09-28T04:43:44.427Z,99.90
2017-09-28T04:46:12.140Z,99.90
2017-09-28T04:48:40.571Z,99.90
2017-09-28T04:51:08.275Z,99.90
2017-09-28T04:53:36.719Z,99.90
2017-09-28T04:56:04.448Z,99.90
2017-09-28T04:58:32.115Z,99.90
2017-09-28T05:00:59.775Z,99.90
2017-09-28T05:03:27.479Z,99.30
2017-09-28T05:05:55.155Z,99.10
2017-09-28T05:08:23.632Z,99.60
2017-09-28T05:10:52.074Z,99.50
2017-09-28T05:13:19.788Z,99.50
2017-09-28T05:15:47.452Z,99.10
2017-09-28T05:18:15.299Z,98.70
2017-09-28T05:20:43.742Z,99.50
2017-09-28T05:23:11.459Z,99.50
2017-09-28T05:25:39.194Z,99.60
2017-09-28T05:28:06.895Z,99.30
2017-09-28T05:30:34.579Z,99.30
2017-09-28T05:33:02.324Z,99.70
2017-09-28T05:35:30.015Z,99.50
2017-09-28T05:37:57.741Z,99.70
2017-09-28T05:40:26.548Z,99.70
2017-09-28T05:42:54.288Z,99.60
2017-09-28T05:45:21.955Z,99.50
2017-09-28T05:47:49.707Z,99.50
2017-09-28T05:50:17.392Z,99.50
2017-09-28T05:52:45.105Z,99.40
2017-09-28T05:55:12.779Z,99.00
2017-09-28T05:57:40.460Z,98.80
2017-09-28T06:00:08.237Z,98.80
2017-09-28T06:02:35.921Z,98.80
2017-09-28T06:05:04.400Z,99.00
2017-09-28T06:07:32.837Z,99.20
2017-09-28T06:10:00.536Z,99.10
2017-09-28T06:12:28.963Z,99.30
2017-09-28T06:14:57.440Z,99.20
2017-09-28T06:17:25.107Z,99.20
2017-09-28T06:19:52.820Z,98.90
2017-09-28T06:22:21.256Z,98.80
2017-09-28T06:24:48.972Z,98.80
2017-09-28T06:27:16.652Z,98.90
2017-09-28T06:29:44.382Z,99.00
2017-09-28T06:32:12.815Z,99.40
2017-09-28T06:34:40.531Z,99.40
2017-09-28T06:37:08.224Z,99.60
2017-09-28T06:39:35.947Z,99.30
2017-09-28T06:42:03.627Z,99.00
2017-09-28T06:44:31.358Z,98.90
2017-09-28T06:46:59.816Z,98.60
2017-09-28T06:49:27.540Z,98.60
2017-09-28T06:51:55.215Z,99.00
2017-09-28T06:54:22.962Z,99.40
2017-09-28T06:56:50.622Z,99.40
2017-09-28T06:59:18.336Z,99.70
2017-09-28T07:01:46.996Z,98.80
2017-09-28T07:04:14.668Z,98.80
2017-09-28T07:06:42.379Z,99.00
2017-09-28T07:09:10.060Z,99.10
2017-09-28T07:11:37.787Z,98.60
2017-09-28T07:14:05.515Z,98.10
2017-09-28T07:16:33.994Z,98.00
2017-09-28T07:19:02.432Z,98.00
2017-09-28T07:21:30.154Z,98.00
2017-09-28T07:23:57.812Z,97.60
2017-09-28T07:26:25.520Z,97.50
2017-09-28T07:28:53.201Z,97.30
2017-09-28T07:31:21.019Z,97.50
2017-09-28T07:33:48.736Z,97.30
2017-09-28T07:36:17.212Z,97.20
2017-09-28T07:38:45.643Z,97.10
2017-09-28T07:41:13.354Z,97.10
2017-09-28T07:43:41.804Z,97.30
2017-09-28T07:46:09.524Z,97.20
2017-09-28T07:48:37.193Z,97.00
2017-09-28T07:51:04.909Z,97.00
2017-09-28T07:53:33.350Z,97.50
2017-09-28T07:56:01.054Z,97.50
2017-09-28T07:58:29.497Z,96.90
2017-09-28T08:00:57.219Z,96.90
2017-09-28T08:03:24.887Z,96.60
2017-09-28T08:05:52.574Z,96.50
2017-09-28T08:08:20.290Z,96.90
2017-09-28T08:10:47.991Z,97.10
2017-09-28T08:13:15.722Z,96.60
2017-09-28T08:15:43.419Z,97.00
2017-09-28T08:18:11.132Z,96.20
2017-09-28T08:20:38.814Z,95.90
2017-09-28T08:23:06.552Z,95.70
2017-09-28T08:25:34.251Z,95.30
2017-09-28T08:28:02.071Z,94.80
2017-09-28T08:30:29.748Z,95.10
2017-09-28T08:32:57.487Z,94.90
2017-09-28T08:35:25.168Z,94.60
2017-09-28T08:37:52.888Z,95.00
2017-09-28T08:40:21.315Z,94.60
2017-09-28T08:42:49.027Z,94.60
2017-09-28T08:45:17.483Z,94.40
2017-09-28T08:47:45.208Z,94.40
2017-09-28T08:50:12.871Z,93.40
2017-09-28T08:52:40.585Z,93.80
2017-09-28T08:55:09.015Z,93.60
2017-09-28T08:57:36.765Z,93.60
2017-09-28T09:00:04.536Z,93.70
2017-09-28T09:02:32.265Z,93.30
2017-09-28T09:04:59.928Z,93.60
2017-09-28T09:07:27.609Z,94.20
2017-09-28T09:09:55.323Z,94.30
2017-09-28T09:12:23.761Z,94.70
2017-09-28T09:14:51.476Z,94.60
2017-09-28T09:17:19.912Z,94.70
2017-09-28T09:19:47.622Z,94.70
2017-09-28T09:22:15.288Z,93.90
2017-09-28T09:24:42.996Z,93.80
2017-09-28T09:27:10.667Z,94.10
2017-09-28T09:29:38.389Z,93.80
2017-09-28T09:32:06.105Z,93.50
2017-09-28T09:34:34.581Z,93.50
2017-09-28T09:37:03.007Z,93.80
2017-09-28T09:39:30.719Z,93.70
2017-09-28T09:41:59.151Z,93.00
2017-09-28T09:44:26.868Z,93.00
2017-09-28T09:46:55.305Z,93.00
2017-09-28T09:49:23.020Z,93.00
2017-09-28T09:51:50.685Z,92.90
2017-09-28T09:54:18.395Z,93.10
2017-09-28T09:56:46.050Z,92.10
2017-09-28T09:59:13.755Z,92.80
2017-09-28T10:01:41.460Z,92.10
2017-09-28T10:04:09.160Z,92.10
2017-09-28T10:06:42.644Z,91.40
2017-09-28T10:09:12.316Z,91.50
2017-09-28T10:11:45.362Z,91.50
2017-09-28T10:14:24.408Z,91.10
2017-09-28T10:16:52.081Z,90.70
2017-09-28T10:19:19.835Z,91.40
2017-09-28T10:21:47.532Z,90.90
2017-09-28T10:24:15.264Z,91.80
2017-09-28T10:26:42.923Z,90.90
2017-09-28T10:29:10.628Z,90.00
2017-09-28T10:31:39.055Z,89.50
2017-09-28T10:34:06.797Z,89.40
2017-09-28T10:36:34.467Z,90.50
2017-09-28T10:39:02.127Z,91.50
2017-09-28T10:41:29.845Z,90.80
2017-09-28T10:43:58.285Z,90.70
2017-09-28T10:46:25.995Z,90.70
2017-09-28T10:48:53.663Z,90.20
2017-09-28T10:51:21.408Z,90.30
2017-09-28T10:53:49.848Z,90.00
2017-09-28T10:56:17.551Z,90.00
2017-09-28T10:58:45.980Z,89.40
2017-09-28T11:01:13.688Z,89.40
2017-09-28T11:03:42.120Z,89.00
2017-09-28T11:06:09.840Z,89.00
2017-09-28T11:08:37.516Z,89.40
2017-09-28T11:11:05.219Z,90.10
2017-09-28T11:13:32.893Z,90.10
2017-09-28T11:16:01.371Z,89.70
2017-09-28T11:18:29.808Z,90.10
2017-09-28T11:20:57.516Z,90.10
2017-09-28T11:23:25.954Z,89.20
2017-09-28T11:25:53.658Z,89.20
2017-09-28T11:28:22.089Z,87.10
2017-09-28T11:30:49.807Z,87.10
2017-09-28T11:33:17.471Z,87.10
2017-09-28T11:35:45.146Z,88.60
2017-09-28T11:38:12.855Z,86.00
2017-09-28T11:40:40.515Z,84.90
2017-09-28T11:43:08.222Z,85.30
2017-09-28T11:45:35.889Z,82.80
2017-09-28T11:48:03.604Z,83.80
2017-09-28T11:50:32.031Z,84.10
2017-09-28T11:52:59.743Z,84.10
2017-09-28T11:55:28.189Z,86.70
2017-09-28T11:57:55.892Z,86.70
2017-09-28T12:00:24.327Z,88.00
2017-09-28T12:02:52.141Z,88.00
2017-09-28T12:05:19.803Z,88.90
2017-09-28T12:07:47.512Z,89.20
2017-09-28T12:10:15.197Z,89.30
2017-09-28T12:12:43.677Z,89.80
2017-09-28T12:15:12.129Z,87.70
2017-09-28T12:20:22.282Z,86.80
2017-09-28T12:22:49.996Z,86.70
2017-09-28T12:25:17.667Z,85.20
2017-09-28T12:27:45.339Z,83.20
2017-09-28T12:30:13.051Z,83.60
2017-09-28T12:32:40.716Z,85.00
2017-09-28T12:35:09.196Z,81.10
2017-09-28T12:37:37.634Z,81.30
2017-09-28T12:40:05.349Z,81.30
2017-09-28T12:42:33.796Z,80.90
2017-09-28T12:45:01.599Z,80.90
2017-09-28T12:47:29.273Z,81.60
2017-09-28T12:49:57.011Z,81.40
2017-09-28T12:52:25.437Z,82.40
2017-09-28T12:54:53.145Z,82.40
2017-09-28T12:57:21.584Z,82.50
2017-09-28T12:59:49.313Z,82.50
2017-09-28T13:02:16.995Z,83.40
2017-09-28T13:04:44.712Z,82.90
2017-09-28T13:07:12.380Z,82.50
2017-09-28T13:09:40.143Z,82.40
2017-09-28T13:12:07.804Z,82.20
2017-09-28T13:14:35.512Z,82.40
2017-09-28T13:17:03.187Z,82.70
2017-09-28T13:19:30.900Z,83.10
2017-09-28T13:21:58.580Z,84.40
2017-09-28T13:24:26.350Z,83.10
2017-09-28T13:26:54.032Z,82.30
2017-09-28T13:29:22.484Z,84.50
2017-09-28T13:31:50.206Z,84.40
2017-09-28T13:34:17.870Z,83.50
2017-09-28T13:36:45.578Z,84.90
2017-09-28T13:39:13.248Z,83.70
2017-09-28T13:41:41.728Z,81.80
2017-09-28T13:44:10.171Z,80.40
2017-09-28T13:46:37.876Z,80.40
2017-09-28T13:49:06.310Z,81.90
2017-09-28T13:51:34.020Z,81.90
2017-09-28T13:54:02.465Z,83.40
2017-09-28T13:56:30.172Z,83.40
2017-09-28T13:58:57.835Z,81.80
2017-09-28T14:01:25.544Z,82.60
2017-09-28T14:03:53.213Z,82.50
2017-09-28T14:06:20.924Z,82.20
2017-09-28T14:08:48.584Z,83.20
2017-09-28T14:11:16.295Z,82.10
2017-09-28T14:13:43.962Z,82.50
2017-09-28T14:16:12.455Z,81.40
2017-09-28T14:18:40.119Z,81.40
2017-09-28T14:21:07.864Z,82.20
2017-09-28T14:23:36.303Z,83.50
2017-09-28T14:26:04.015Z,83.50
2017-09-28T14:28:32.448Z,83.70
2017-09-28T14:31:00.217Z,83.70
2017-09-28T14:33:27.887Z,84.90
2017-09-28T14:35:55.552Z,84.40
2017-09-28T14:38:24.031Z,83.30
2017-09-28T14:40:52.464Z,83.10
2017-09-28T14:43:20.171Z,83.10
2017-09-28T14:45:48.607Z,83.30
2017-09-28T14:48:16.331Z,83.10
2017-09-28T14:50:43.998Z,82.40
2017-09-28T14:53:11.711Z,83.30
2017-09-28T14:55:39.384Z,82.60
2017-09-28T14:58:07.872Z,83.10
2017-09-28T15:00:36.310Z,83.50
2017-09-28T15:03:04.027Z,83.40
2017-09-28T15:05:31.708Z,82.90
2017-09-28T15:07:59.419Z,84.40
2017-09-28T15:10:27.096Z,84.50
2017-09-28T15:12:55.567Z,84.90
2017-09-28T15:15:24.045Z,85.30
2017-09-28T15:17:52.586Z,85.80
2017-09-28T15:20:20.260Z,85.70
2017-09-28T15:22:47.966Z,86.60
2017-09-28T15:25:15.638Z,86.90
2017-09-28T15:27:43.351Z,86.70
2017-09-28T15:30:11.024Z,86.10
2017-09-28T15:32:39.500Z,87.40
2017-09-28T15:35:07.932Z,87.20
2017-09-28T15:37:35.668Z,87.10
2017-09-28T15:40:03.389Z,87.20
2017-09-28T15:42:31.060Z,87.30
2017-09-28T15:44:59.545Z,89.10
2017-09-28T15:47:28.014Z,88.60
2017-09-28T15:49:56.495Z,89.40
2017-09-28T15:52:24.928Z,89.20
2017-09-28T15:54:52.636Z,89.20
2017-09-28T15:57:21.067Z,89.10
2017-09-28T15:59:48.789Z,89.20
2017-09-28T16:02:16.448Z,89.40
2017-09-28T16:04:44.157Z,90.00
2017-09-28T16:07:11.820Z,90.00
2017-09-28T16:09:39.540Z,89.70
2017-09-28T16:12:07.212Z,89.40
2017-09-28T16:14:34.924Z,90.00
2017-09-28T16:17:02.589Z,90.20
2017-09-28T16:19:31.072Z,90.90
2017-09-28T16:21:59.509Z,91.90
2017-09-28T16:24:27.232Z,91.60
2017-09-28T16:26:54.900Z,91.70
2017-09-28T16:29:22.631Z,92.40
2017-09-28T16:31:51.067Z,92.70
2017-09-28T16:34:18.778Z,92.60
2017-09-28T16:36:46.447Z,92.90
2017-09-28T16:39:14.161Z,93.30
2017-09-28T16:41:41.824Z,93.50
2017-09-28T16:44:09.536Z,93.70
2017-09-28T16:46:37.247Z,93.80
2017-09-28T16:49:04.920Z,94.20
2017-09-28T16:51:33.399Z,95.20
2017-09-28T16:54:01.838Z,95.20
2017-09-28T16:56:29.547Z,95.20
2017-09-28T16:58:57.976Z,95.80
2017-09-28T17:01:25.684Z,95.80
2017-09-28T17:03:54.118Z,96.00
2017-09-28T17:06:21.829Z,96.00
2017-09-28T17:08:50.269Z,95.00
2017-09-28T17:11:17.976Z,95.00
2017-09-28T17:13:45.654Z,95.50
2017-09-28T17:16:13.359Z,95.80
2017-09-28T17:18:41.032Z,96.00
2017-09-28T17:21:09.515Z,96.50
2017-09-28T17:23:37.951Z,96.40
2017-09-28T17:26:05.712Z,96.30
2017-09-28T17:28:33.376Z,96.30
2017-09-28T17:31:01.080Z,96.00
2017-09-28T17:33:29.517Z,94.90
2017-09-28T17:35:57.232Z,94.90
2017-09-28T17:38:24.907Z,95.40
2017-09-28T17:40:52.628Z,96.10
2017-09-28T17:43:21.095Z,95.80
2017-09-28T17:45:48.841Z,95.80
2017-09-28T17:48:16.524Z,96.00
2017-09-28T17:50:44.959Z,96.40
2017-09-28T17:53:12.669Z,96.30
2017-09-28T17:55:41.118Z,96.70
2017-09-28T17:58:08.836Z,96.70
2017-09-28T18:00:36.512Z,96.10
2017-09-28T18:03:04.234Z,96.10
2017-09-28T18:05:32.667Z,95.80
2017-09-28T18:08:00.371Z,95.80
2017-09-28T18:10:28.800Z,95.60
2017-09-28T18:12:56.554Z,95.60
2017-09-28T18:15:24.224Z,95.80
2017-09-28T18:17:52.838Z,96.20
2017-09-28T18:20:21.263Z,96.50
2017-09-28T18:22:48.969Z,96.50
2017-09-28T18:25:16.637Z,96.50
2017-09-28T18:27:45.112Z,96.70
2017-09-28T18:30:13.584Z,96.60
2017-09-28T18:32:41.343Z,96.50
2017-09-28T18:35:09.011Z,97.30
2017-09-28T18:37:37.491Z,96.40
2017-09-28T18:40:05.934Z,96.80
2017-09-28T18:42:33.647Z,96.80
2017-09-28T18:45:01.315Z,97.20
2017-09-28T18:47:29.029Z,97.40
2017-09-28T18:49:56.695Z,97.50
2017-09-28T18:52:24.418Z,98.40
2017-09-28T18:54:52.080Z,98.10
2017-09-28T18:57:19.744Z,97.90
2017-09-28T18:59:47.456Z,98.40
2017-09-28T19:02:15.898Z,98.10
2017-09-28T19:04:43.658Z,98.10
2017-09-28T19:07:11.375Z,97.90
2017-09-28T19:09:39.105Z,97.50
2017-09-28T19:12:06.772Z,97.50
2017-09-28T19:14:35.244Z,97.60
2017-09-28T19:17:03.684Z,98.10
2017-09-28T19:19:31.568Z,98.10
2017-09-28T19:21:59.249Z,98.20
2017-09-28T19:24:27.748Z,99.10
2017-09-28T19:26:55.422Z,99.10
2017-09-28T19:29:23.166Z,98.90
2017-09-28T19:31:50.900Z,99.00
2017-09-28T19:34:18.651Z,98.70
2017-09-28T19:36:46.360Z,99.00
2017-09-28T19:39:14.996Z,98.70
2017-09-28T19:41:42.660Z,98.70
2017-09-28T19:44:10.375Z,98.90
2017-09-28T19:46:38.068Z,98.80
2017-09-28T19:49:05.822Z,98.60
2017-09-28T19:51:33.502Z,98.70
2017-09-28T19:54:01.255Z,98.70
2017-09-28T19:56:28.982Z,98.80
2017-09-28T19:58:56.738Z,99.50
2017-09-28T20:01:24.408Z,99.30
2017-09-28T20:03:52.087Z,99.60
2017-09-28T20:06:19.809Z,99.90
2017-09-28T20:08:47.475Z,99.90
2017-09-28T20:11:15.184Z,99.90
2017-09-28T20:13:42.889Z,99.90
2017-09-28T20:16:10.599Z,99.90
2017-09-28T20:18:38.269Z,99.90
2017-09-28T20:21:06.038Z,99.80
2017-09-28T20:23:34.517Z,99.70
2017-09-28T20:26:02.991Z,99.50
2017-09-28T20:28:30.656Z,99.50
2017-09-28T20:30:59.142Z,99.10
2017-09-28T20:33:27.577Z,98.70
2017-09-28T20:35:55.292Z,98.70
2017-09-28T20:38:22.964Z,98.70
2017-09-28T20:40:50.700Z,98.50
2017-09-28T20:43:19.141Z,99.30
2017-09-28T20:45:46.863Z,99.30
2017-09-28T20:48:14.569Z,99.90
2017-09-28T20:50:42.325Z,99.90
2017-09-28T20:53:10.088Z,99.90
2017-09-28T20:55:37.834Z,99.90
2017-09-28T20:58:05.510Z,99.90
2017-09-28T21:00:33.249Z,99.90
2017-09-28T21:03:00.924Z,99.90
2017-09-28T21:05:28.599Z,99.90
2017-09-28T21:07:56.309Z,99.90
2017-09-28T21:10:23.976Z,99.90
2017-09-28T21:12:51.691Z,99.90
2017-09-28T21:15:19.355Z,99.90
2017-09-28T21:17:47.835Z,99.90
2017-09-28T21:20:16.282Z,99.90
2017-09-28T21:22:44.007Z,99.90
2017-09-28T21:25:11.675Z,99.90
2017-09-28T21:27:39.384Z,99.90
2017-09-28T21:30:07.077Z,99.90
2017-09-28T21:32:34.787Z,99.90
2017-09-28T21:35:02.517Z,99.90
2017-09-28T21:37:30.240Z,99.90
2017-09-28T21:39:58.717Z,99.90
2017-09-28T21:42:27.234Z,99.90
2017-09-28T21:44:54.926Z,99.90
2017-09-28T21:47:22.644Z,99.90
2017-09-28T21:49:50.311Z,99.90
2017-09-28T21:52:18.071Z,99.90
2017-09-28T21:54:45.738Z,99.90
2017-09-28T21:57:13.453Z,99.90
2017-09-28T21:59:41.933Z,99.60
2017-09-28T22:02:10.418Z,99.80
2017-09-28T22:04:38.854Z,99.90
2017-09-28T22:07:06.841Z,99.90
2017-09-28T22:09:34.525Z,99.90
2017-09-28T22:12:02.199Z,99.90
2017-09-28T22:14:29.916Z,99.90
2017-09-28T22:16:57.590Z,99.90
2017-09-28T22:19:26.072Z,99.90
2017-09-28T22:21:54.543Z,99.90
2017-09-28T22:24:22.253Z,99.90
2017-09-28T22:26:49.916Z,99.90
2017-09-28T22:29:17.628Z,99.90
2017-09-28T22:31:46.065Z,99.90
2017-09-28T22:34:13.793Z,99.90
2017-09-28T22:36:41.463Z,99.90
2017-09-28T22:39:09.188Z,99.90
2017-09-28T22:41:37.626Z,99.80
2017-09-28T22:44:05.338Z,99.80
2017-09-28T22:46:33.772Z,99.90
2017-09-28T22:49:01.508Z,99.90
2017-09-28T22:51:29.172Z,99.90
2017-09-28T22:53:56.898Z,99.90
2017-09-28T22:56:25.357Z,99.90
2017-09-28T22:58:53.074Z,99.90
2017-09-28T23:01:20.790Z,99.90
2017-09-28T23:03:49.258Z,99.20
2017-09-28T23:06:16.988Z,99.20
2017-09-28T23:08:44.698Z,98.90
2017-09-28T23:11:12.393Z,98.90
2017-09-28T23:13:40.124Z,98.90
2017-09-28T23:16:07.820Z,98.90
2017-09-28T23:18:35.493Z,99.00
2017-09-28T23:21:03.215Z,99.20
2017-09-28T23:23:30.885Z,99.20
2017-09-28T23:25:58.685Z,99.50
2017-09-28T23:28:26.398Z,99.40
2017-09-28T23:30:54.108Z,99.60
2017-09-28T23:33:21.855Z,99.90
2017-09-28T23:35:49.567Z,99.90
2017-09-28T23:38:17.253Z,99.90
2017-09-28T23:40:44.965Z,99.90
2017-09-28T23:43:12.665Z,99.90
2017-09-28T23:45:40.388Z,99.90
2017-09-28T23:48:08.832Z,99.30
2017-09-28T23:50:36.549Z,99.40
2017-09-28T23:53:04.232Z,99.00
2017-09-28T23:55:32.020Z,99.10
2017-09-28T23:58:01.209Z,99.20
